createdAt,value
2018-09-28T00:00:59.245Z,100155.50
2018-09-28T00:02:01.864Z,100155.50
2018-09-28T00:03:04.471Z,100153.68
2018-09-28T00:04:07.072Z,100154.16
2018-09-28T00:05:09.703Z,100156.35
2018-09-28T00:06:12.301Z,100157.35
2018-09-28T00:07:14.873Z,100154.16
2018-09-28T00:08:17.483Z,100159.03
2018-09-28T00:09:20.079Z,100156.84
2018-09-28T00:10:22.683Z,100158.17
2018-09-28T00:11:25.273Z,100158.17
2018-09-28T00:12:27.851Z,100160.50
2018-09-28T00:13:30.529Z,100153.83
2018-09-28T00:14:33.135Z,100157.83
2018-09-28T00:15:35.727Z,100161.84
2018-09-28T00:16:38.340Z,100162.19
2018-09-28T00:17:40.919Z,100162.70
2018-09-28T00:18:43.621Z,100163.18
2018-09-28T00:19:46.223Z,100164.85
2018-09-28T00:20:48.840Z,100163.18
2018-09-28T00:21:51.431Z,100172.53
2018-09-28T00:22:54.054Z,100168.52
2018-09-28T00:23:56.748Z,100168.04
2018-09-28T00:24:59.321Z,100175.20
2018-09-28T00:26:01.968Z,100171.70
2018-09-28T00:27:04.549Z,100172.05
2018-09-28T00:28:07.158Z,100178.88
2018-09-28T00:29:09.833Z,100180.55
2018-09-28T00:30:12.409Z,100176.20
2018-09-28T00:31:15.015Z,100182.73
2018-09-28T00:32:17.593Z,100177.53
2018-09-28T00:33:20.165Z,100181.55
2018-09-28T00:34:22.733Z,100185.21
2018-09-28T00:35:25.309Z,100181.72
2018-09-28T00:36:27.897Z,100184.73
2018-09-28T00:37:30.485Z,100187.55
2018-09-28T00:38:33.100Z,100184.22
2018-09-28T00:39:35.788Z,100181.72
2018-09-28T00:40:38.366Z,100180.86
2018-09-28T00:41:40.967Z,100180.05
2018-09-28T00:42:43.540Z,100183.53
2018-09-28T00:43:46.125Z,100187.55
2018-09-28T00:44:48.713Z,100181.86
2018-09-28T00:45:51.341Z,100184.05
2018-09-28T00:46:53.917Z,100187.20
2018-09-28T00:47:56.507Z,100191.22
2018-09-28T00:48:59.107Z,100187.55
2018-09-28T00:50:01.726Z,100192.55
2018-09-28T00:51:04.361Z,100191.22
2018-09-28T00:52:07.084Z,100193.06
2018-09-28T00:53:09.669Z,100189.87
2018-09-28T00:54:12.271Z,100192.72
2018-09-28T00:55:14.866Z,100196.22
2018-09-28T00:56:17.541Z,100198.41
2018-09-28T00:57:20.122Z,100197.55
2018-09-28T00:58:22.719Z,100198.41
2018-09-28T00:59:25.285Z,100203.23
2018-09-28T01:00:29.757Z,100196.22
2018-09-28T01:01:32.337Z,100201.08
2018-09-28T01:02:34.925Z,100202.41
2018-09-28T01:03:37.559Z,100205.57
2018-09-28T01:04:40.133Z,100205.91
2018-09-28T01:05:42.701Z,100198.17
2018-09-28T01:06:45.285Z,100202.23
2018-09-28T01:07:47.865Z,100206.42
2018-09-28T01:08:50.471Z,100201.90
2018-09-28T01:09:53.059Z,100204.09
2018-09-28T01:10:55.645Z,100207.25
2018-09-28T01:11:58.249Z,100202.75
2018-09-28T01:13:00.851Z,100208.58
2018-09-28T01:14:03.438Z,100203.58
2018-09-28T01:15:06.045Z,100209.44
2018-09-28T01:16:08.659Z,100201.42
2018-09-28T01:17:11.277Z,100212.45
2018-09-28T01:18:13.859Z,100198.75
2018-09-28T01:19:16.451Z,100207.92
2018-09-28T01:20:19.041Z,100204.91
2018-09-28T01:21:21.657Z,100206.25
2018-09-28T01:22:24.250Z,100203.58
2018-09-28T01:23:26.873Z,100207.59
2018-09-28T01:24:29.763Z,100211.11
2018-09-28T01:25:32.346Z,100210.26
2018-09-28T01:26:34.935Z,100206.25
2018-09-28T01:27:37.529Z,100210.26
2018-09-28T01:28:40.089Z,100200.08
2018-09-28T01:29:42.696Z,100203.23
2018-09-28T01:30:45.341Z,100208.92
2018-09-28T01:31:48.184Z,100208.44
2018-09-28T01:32:50.773Z,100210.26
2018-09-28T01:33:53.351Z,100204.91
2018-09-28T01:34:55.921Z,100211.59
2018-09-28T01:35:58.597Z,100208.92
2018-09-28T01:37:01.199Z,100210.43
2018-09-28T01:38:03.775Z,100210.26
2018-09-28T01:39:06.965Z,100206.25
2018-09-28T01:40:09.590Z,100213.44
2018-09-28T01:41:12.182Z,100213.92
2018-09-28T01:42:14.750Z,100214.44
2018-09-28T01:43:17.331Z,100212.25
2018-09-28T01:44:19.942Z,100210.09
2018-09-28T01:45:22.517Z,100214.55
2018-09-28T01:46:25.080Z,100210.09
2018-09-28T01:47:27.657Z,100219.44
2018-09-28T01:48:30.217Z,100214.55
2018-09-28T01:49:32.820Z,100216.87
2018-09-28T01:50:35.421Z,100218.22
2018-09-28T01:51:38.031Z,100221.23
2018-09-28T01:52:40.616Z,100221.23
2018-09-28T01:53:43.219Z,100226.23
2018-09-28T01:54:45.819Z,100227.09
2018-09-28T01:55:48.396Z,100222.22
2018-09-28T01:56:50.999Z,100220.88
2018-09-28T01:57:53.629Z,100220.06
2018-09-28T01:58:56.205Z,100226.23
2018-09-28T01:59:58.787Z,100221.88
2018-09-28T02:01:01.377Z,100223.22
2018-09-28T02:02:04.048Z,100221.06
2018-09-28T02:03:06.657Z,100221.41
2018-09-28T02:04:09.319Z,100223.73
2018-09-28T02:05:11.951Z,100220.20
2018-09-28T02:06:14.547Z,100224.21
2018-09-28T02:07:17.123Z,100228.22
2018-09-28T02:08:19.715Z,100233.08
2018-09-28T02:09:22.301Z,100226.55
2018-09-28T02:10:24.905Z,100228.73
2018-09-28T02:11:27.489Z,100229.22
2018-09-28T02:12:30.173Z,100234.56
2018-09-28T02:13:32.713Z,100231.55
2018-09-28T02:14:35.322Z,100235.55
2018-09-28T02:15:37.904Z,100230.21
2018-09-28T02:16:40.493Z,100233.87
2018-09-28T02:17:43.080Z,100233.87
2018-09-28T02:18:45.703Z,100237.89
2018-09-28T02:19:48.295Z,100240.08
2018-09-28T02:20:50.889Z,100236.89
2018-09-28T02:21:53.505Z,100231.20
2018-09-28T02:22:56.181Z,100230.04
2018-09-28T02:23:58.779Z,100232.71
2018-09-28T02:25:01.357Z,100238.54
2018-09-28T02:26:03.939Z,100246.41
2018-09-28T02:27:06.767Z,100242.55
2018-09-28T02:28:09.415Z,100242.55
2018-09-28T02:29:11.989Z,100249.23
2018-09-28T02:30:14.656Z,100243.51
2018-09-28T02:31:17.246Z,100249.39
2018-09-28T02:32:19.831Z,100248.88
2018-09-28T02:33:22.522Z,100249.39
2018-09-28T02:34:25.382Z,100247.69
2018-09-28T02:35:28.004Z,100254.74
2018-09-28T02:36:30.581Z,100249.02
2018-09-28T02:37:33.178Z,100250.87
2018-09-28T02:38:35.798Z,100252.20
2018-09-28T02:39:38.390Z,100254.53
2018-09-28T02:40:40.983Z,100258.89
2018-09-28T02:41:43.576Z,100253.20
2018-09-28T02:42:46.165Z,100255.88
2018-09-28T02:43:48.765Z,100259.88
2018-09-28T02:44:51.349Z,100264.71
2018-09-28T02:45:53.938Z,100262.89
2018-09-28T02:46:56.535Z,100266.90
2018-09-28T02:47:59.136Z,100278.58
2018-09-28T02:49:02.171Z,100272.38
2018-09-28T02:50:04.924Z,100283.58
2018-09-28T02:51:07.537Z,100284.41
2018-09-28T02:52:10.145Z,100283.58
2018-09-28T02:53:16.970Z,100284.91
2018-09-28T02:54:19.805Z,100279.58
2018-09-28T02:55:22.379Z,100286.25
2018-09-28T02:56:24.977Z,100290.27
2018-09-28T02:57:27.557Z,100286.73
2018-09-28T02:58:30.163Z,100290.40
2018-09-28T02:59:32.741Z,100294.41
2018-09-28T03:00:35.323Z,100296.59
2018-09-28T03:01:37.935Z,100293.41
2018-09-28T03:02:40.507Z,100289.92
2018-09-28T03:03:43.111Z,100291.25
2018-09-28T03:04:45.941Z,100293.24
2018-09-28T03:05:48.580Z,100293.92
2018-09-28T03:06:51.237Z,100290.05
2018-09-28T03:07:53.821Z,100289.23
2018-09-28T03:08:56.423Z,100289.72
2018-09-28T03:09:58.997Z,100291.05
2018-09-28T03:11:01.585Z,100288.03
2018-09-28T03:12:04.187Z,100290.23
2018-09-28T03:13:07.223Z,100288.37
2018-09-28T03:14:09.809Z,100287.55
2018-09-28T03:15:12.420Z,100290.56
2018-09-28T03:16:15.012Z,100303.07
2018-09-28T03:17:17.629Z,100300.91
2018-09-28T03:18:20.227Z,100301.73
2018-09-28T03:19:23.201Z,100299.41
2018-09-28T03:20:25.765Z,100305.27
2018-09-28T03:21:28.847Z,100302.94
2018-09-28T03:22:31.433Z,100307.28
2018-09-28T03:23:34.022Z,100310.44
2018-09-28T03:24:36.587Z,100305.95
2018-09-28T03:25:39.158Z,100313.96
2018-09-28T03:26:41.708Z,100315.64
2018-09-28T03:27:44.284Z,100304.61
2018-09-28T03:28:46.854Z,100303.27
2018-09-28T03:29:49.426Z,100304.75
2018-09-28T03:30:51.998Z,100308.27
2018-09-28T03:31:54.558Z,100307.28
2018-09-28T03:32:57.117Z,100302.94
2018-09-28T03:33:59.686Z,100303.75
2018-09-28T03:35:02.282Z,100314.09
2018-09-28T03:36:04.918Z,100309.75
2018-09-28T03:37:07.490Z,100309.27
2018-09-28T03:38:10.041Z,100315.95
2018-09-28T03:39:12.635Z,100317.28
2018-09-28T03:40:15.194Z,100319.61
2018-09-28T03:41:17.778Z,100321.43
2018-09-28T03:42:20.375Z,100315.60
2018-09-28T03:43:22.943Z,100316.08
2018-09-28T03:44:25.494Z,100326.77
2018-09-28T03:45:28.051Z,100328.62
2018-09-28T03:46:30.630Z,100320.26
2018-09-28T03:47:33.362Z,100325.09
2018-09-28T03:48:35.922Z,100326.09
2018-09-28T03:49:38.503Z,100331.77
2018-09-28T03:50:41.075Z,100329.27
2018-09-28T03:51:43.638Z,100338.62
2018-09-28T03:52:46.243Z,100336.42
2018-09-28T03:53:48.822Z,100338.27
2018-09-28T03:54:51.429Z,100340.60
2018-09-28T03:55:54.017Z,100345.77
2018-09-28T03:56:56.587Z,100346.28
2018-09-28T03:57:59.138Z,100344.95
2018-09-28T03:59:01.734Z,100336.59
2018-09-28T04:00:04.512Z,100340.95
2018-09-28T04:01:07.118Z,100343.62
2018-09-28T04:02:09.671Z,100344.09
2018-09-28T04:03:12.303Z,100349.95
2018-09-28T04:04:14.931Z,100350.43
2018-09-28T04:05:17.503Z,100353.95
2018-09-28T04:06:21.016Z,100359.30
2018-09-28T04:07:23.598Z,100352.28
2018-09-28T04:08:26.182Z,100353.61
2018-09-28T04:09:28.748Z,100362.96
2018-09-28T04:10:31.310Z,100364.30
2018-09-28T04:11:33.890Z,100356.89
2018-09-28T04:12:36.510Z,100369.64
2018-09-28T04:13:39.077Z,100367.96
2018-09-28T04:14:41.673Z,100371.97
2018-09-28T04:15:44.238Z,100376.45
2018-09-28T04:16:46.806Z,100369.43
2018-09-28T04:17:49.362Z,100374.98
2018-09-28T04:18:51.927Z,100372.95
2018-09-28T04:19:54.492Z,100376.80
2018-09-28T04:20:57.050Z,100386.31
2018-09-28T04:22:00.895Z,100380.46
2018-09-28T04:23:03.449Z,100388.47
2018-09-28T04:24:06.133Z,100385.97
2018-09-28T04:25:08.771Z,100380.97
2018-09-28T04:26:11.337Z,100386.31
2018-09-28T04:27:13.910Z,100386.80
2018-09-28T04:28:16.526Z,100392.65
2018-09-28T04:29:19.086Z,100389.98
2018-09-28T04:30:21.642Z,100395.80
2018-09-28T04:31:24.212Z,100395.80
2018-09-28T04:32:26.790Z,100398.98
2018-09-28T04:33:29.366Z,100392.30
2018-09-28T04:34:31.922Z,100397.64
2018-09-28T04:35:34.486Z,100404.66
2018-09-28T04:36:37.062Z,100396.95
2018-09-28T04:37:39.622Z,100404.80
2018-09-28T04:38:42.195Z,100409.31
2018-09-28T04:39:44.802Z,100408.67
2018-09-28T04:40:47.366Z,100404.33
2018-09-28T04:41:49.937Z,100413.03
2018-09-28T04:42:52.494Z,100413.03
2018-09-28T04:43:55.062Z,100411.17
2018-09-28T04:44:57.646Z,100415.05
2018-09-28T04:46:00.193Z,100415.05
2018-09-28T04:47:02.746Z,100411.39
2018-09-28T04:48:05.393Z,100411.73
2018-09-28T04:49:07.963Z,100414.75
2018-09-28T04:50:10.558Z,100415.73
2018-09-28T04:51:13.139Z,100419.92
2018-09-28T04:52:15.686Z,100416.43
2018-09-28T04:53:18.261Z,100411.09
2018-09-28T04:54:20.814Z,100416.77
2018-09-28T04:55:23.373Z,100418.11
2018-09-28T04:56:25.962Z,100415.92
2018-09-28T04:57:28.551Z,100424.78
2018-09-28T04:58:31.094Z,100426.47
2018-09-28T04:59:33.666Z,100426.81
2018-09-28T05:00:36.235Z,100429.63
2018-09-28T05:01:38.846Z,100430.48
2018-09-28T05:02:41.406Z,100430.13
2018-09-28T05:03:43.954Z,100434.14
2018-09-28T05:04:46.543Z,100433.63
2018-09-28T05:05:49.130Z,100430.95
2018-09-28T05:06:51.696Z,100431.95
2018-09-28T05:07:54.321Z,100431.47
2018-09-28T05:08:56.871Z,100434.27
2018-09-28T05:09:59.442Z,100439.96
2018-09-28T05:11:02.039Z,100445.47
2018-09-28T05:12:04.598Z,100442.28
2018-09-28T05:13:07.230Z,100444.48
2018-09-28T05:14:10.166Z,100449.48
2018-09-28T05:15:12.821Z,100449.48
2018-09-28T05:16:15.382Z,100458.48
2018-09-28T05:17:17.967Z,100454.47
2018-09-28T05:18:20.522Z,100464.30
2018-09-28T05:19:23.125Z,100462.48
2018-09-28T05:20:25.670Z,100463.83
2018-09-28T05:21:28.325Z,100473.52
2018-09-28T05:22:30.922Z,100469.64
2018-09-28T05:23:33.511Z,100473.17
2018-09-28T05:24:36.085Z,100478.99
2018-09-28T05:25:38.662Z,100474.52
2018-09-28T05:26:41.318Z,100478.52
2018-09-28T05:27:43.884Z,100479.85
2018-09-28T05:28:46.443Z,100480.33
2018-09-28T05:29:49.016Z,100485.33
2018-09-28T05:30:53.962Z,100485.67
2018-09-28T05:31:54.463Z,100476.84
2018-09-28T05:32:57.102Z,100484.84
2018-09-28T05:33:59.501Z,100487.17
2018-09-28T05:35:02.106Z,100486.19
2018-09-28T05:36:04.746Z,100485.33
2018-09-28T05:37:07.488Z,100488.86
2018-09-28T05:38:10.053Z,100489.33
2018-09-28T05:39:12.626Z,100489.33
2018-09-28T05:40:15.226Z,100495.19
2018-09-28T05:41:17.884Z,100500.53
2018-09-28T05:42:20.542Z,100495.67
2018-09-28T05:43:23.114Z,100504.19
2018-09-28T05:44:25.651Z,100502.00
2018-09-28T05:45:28.218Z,100502.34
2018-09-28T05:46:30.779Z,100507.85
2018-09-28T05:47:33.450Z,100511.86
2018-09-28T05:48:36.018Z,100511.00
2018-09-28T05:49:38.566Z,100515.01
2018-09-28T05:50:41.131Z,100516.34
2018-09-28T05:51:43.714Z,100516.85
2018-09-28T05:52:46.267Z,100513.84
2018-09-28T05:53:48.818Z,100517.50
2018-09-28T05:54:51.385Z,100520.64
2018-09-28T05:55:53.962Z,100523.31
2018-09-28T05:56:56.534Z,100522.14
2018-09-28T05:58:04.818Z,100529.52
2018-09-28T05:59:12.918Z,100526.98
2018-09-28T06:00:20.934Z,100532.31
2018-09-28T06:01:29.035Z,100534.16
2018-09-28T06:02:37.002Z,100532.48
2018-09-28T06:03:45.138Z,100535.16
2018-09-28T06:04:53.274Z,100541.45
2018-09-28T06:05:59.490Z,100540.62
2018-09-28T06:07:02.103Z,100545.45
2018-09-28T06:08:04.730Z,100538.09
2018-09-28T06:09:09.051Z,100536.75
2018-09-28T06:10:11.630Z,100542.09
2018-09-28T06:11:14.221Z,100543.08
2018-09-28T06:12:17.033Z,100538.59
2018-09-28T06:13:20.818Z,100541.75
2018-09-28T06:14:23.502Z,100541.39
2018-09-28T06:15:26.068Z,100546.61
2018-09-28T06:16:28.673Z,100543.08
2018-09-28T06:17:31.258Z,100545.41
2018-09-28T06:18:33.861Z,100544.58
2018-09-28T06:19:36.513Z,100551.95
2018-09-28T06:20:39.098Z,100553.42
2018-09-28T06:21:41.682Z,100553.42
2018-09-28T06:22:44.256Z,100554.05
2018-09-28T06:23:46.826Z,100562.77
2018-09-28T06:24:49.482Z,100558.76
2018-09-28T06:25:52.126Z,100567.12
2018-09-28T06:26:54.682Z,100564.10
2018-09-28T06:27:57.246Z,100564.61
2018-09-28T06:28:59.810Z,100573.80
2018-09-28T06:30:02.490Z,100569.44
2018-09-28T06:31:05.090Z,100573.45
2018-09-28T06:32:07.769Z,100578.44
2018-09-28T06:33:10.354Z,100578.44
2018-09-28T06:34:12.918Z,100580.77
2018-09-28T06:35:15.587Z,100583.44
2018-09-28T06:36:18.237Z,100583.09
2018-09-28T06:37:20.785Z,100585.76
2018-09-28T06:38:23.370Z,100586.27
2018-09-28T06:39:25.956Z,100591.09
2018-09-28T06:40:28.629Z,100591.09
2018-09-28T06:41:31.194Z,100593.77
2018-09-28T06:42:33.828Z,100592.08
2018-09-28T06:43:36.401Z,100596.44
2018-09-28T06:44:39.263Z,100593.42
2018-09-28T06:45:41.927Z,100601.44
2018-09-28T06:46:44.494Z,100599.27
2018-09-28T06:47:47.141Z,100602.77
2018-09-28T06:48:49.728Z,100604.61
2018-09-28T06:49:52.298Z,100601.44
2018-09-28T06:50:55.019Z,100607.63
2018-09-28T06:51:57.614Z,100606.77
2018-09-28T06:53:00.178Z,100607.28
2018-09-28T06:54:02.819Z,100610.78
2018-09-28T06:55:05.422Z,100609.95
2018-09-28T06:56:08.064Z,100613.45
2018-09-28T06:57:10.637Z,100617.11
2018-09-28T06:58:13.284Z,100616.13
2018-09-28T06:59:15.835Z,100621.46
2018-09-28T07:00:18.428Z,100617.45
2018-09-28T07:01:20.998Z,100619.65
2018-09-28T07:02:23.555Z,100623.30
2018-09-28T07:03:26.114Z,100621.46
2018-09-28T07:04:28.706Z,100621.46
2018-09-28T07:05:31.290Z,100621.97
2018-09-28T07:06:33.850Z,100633.48
2018-09-28T07:07:36.468Z,100630.81
2018-09-28T07:08:39.030Z,100629.12
2018-09-28T07:09:41.591Z,100633.13
2018-09-28T07:10:44.170Z,100634.81
2018-09-28T07:11:46.779Z,100631.31
2018-09-28T07:12:49.351Z,100636.31
2018-09-28T07:13:52.266Z,100634.47
2018-09-28T07:14:54.848Z,100638.47
2018-09-28T07:15:57.466Z,100640.31
2018-09-28T07:17:00.035Z,100646.01
2018-09-28T07:18:02.666Z,100644.80
2018-09-28T07:19:05.378Z,100653.16
2018-09-28T07:20:08.030Z,100652.33
2018-09-28T07:21:10.586Z,100644.80
2018-09-28T07:22:13.142Z,100651.13
2018-09-28T07:23:15.709Z,100648.97
2018-09-28T07:24:18.318Z,100646.77
2018-09-28T07:25:20.870Z,100649.80
2018-09-28T07:26:23.478Z,100653.80
2018-09-28T07:27:26.038Z,100655.64
2018-09-28T07:28:28.694Z,100659.64
2018-09-28T07:29:31.250Z,100659.14
2018-09-28T07:30:33.803Z,100654.78
2018-09-28T07:31:36.386Z,100658.78
2018-09-28T07:32:39.122Z,100662.80
2018-09-28T07:33:41.686Z,100661.46
2018-09-28T07:34:44.352Z,100669.00
2018-09-28T07:35:46.984Z,100660.63
2018-09-28T07:36:49.745Z,100682.47
2018-09-28T07:37:52.282Z,100680.66
2018-09-28T07:38:54.855Z,100673.64
2018-09-28T07:39:57.443Z,100679.80
2018-09-28T07:41:00.078Z,100680.66
2018-09-28T07:42:02.691Z,100679.68
2018-09-28T07:43:05.234Z,100681.48
2018-09-28T07:44:07.891Z,100683.34
2018-09-28T07:45:10.474Z,100688.16
2018-09-28T07:46:13.181Z,100686.48
2018-09-28T07:47:15.750Z,100695.83
2018-09-28T07:48:18.323Z,100694.84
2018-09-28T07:49:20.925Z,100699.83
2018-09-28T07:50:23.510Z,100698.50
2018-09-28T07:51:26.078Z,100699.36
2018-09-28T07:52:28.662Z,100702.85
2018-09-28T07:53:31.269Z,100705.17
2018-09-28T07:54:33.846Z,100709.53
2018-09-28T07:55:36.438Z,100703.84
2018-09-28T07:56:39.005Z,100711.72
2018-09-28T07:57:41.594Z,100714.39
2018-09-28T07:58:44.188Z,100720.56
2018-09-28T07:59:46.746Z,100721.07
2018-09-28T08:00:49.322Z,100724.09
2018-09-28T08:01:51.878Z,100731.41
2018-09-28T08:02:54.438Z,100731.87
2018-09-28T08:03:57.091Z,100737.73
2018-09-28T08:04:59.594Z,100738.91
2018-09-28T08:06:02.170Z,100736.39
2018-09-28T08:07:04.795Z,100746.56
2018-09-28T08:08:07.362Z,100751.43
2018-09-28T08:09:10.646Z,100749.59
2018-09-28T08:10:13.238Z,100756.27
2018-09-28T08:11:15.821Z,100762.59
2018-09-28T08:12:18.395Z,100765.27
2018-09-28T08:13:21.264Z,100763.92
2018-09-28T08:14:23.986Z,100768.28
2018-09-28T08:15:27.391Z,100767.45
2018-09-28T08:16:29.950Z,100770.25
2018-09-28T08:17:32.537Z,100777.28
2018-09-28T08:18:35.122Z,100778.14
2018-09-28T08:19:37.693Z,100777.28
2018-09-28T08:20:40.242Z,100774.61
2018-09-28T08:21:42.846Z,100783.95
2018-09-28T08:22:45.443Z,100778.48
2018-09-28T08:23:48.042Z,100781.98
2018-09-28T08:24:50.714Z,100779.95
2018-09-28T08:25:53.300Z,100783.13
2018-09-28T08:26:55.870Z,100790.63
2018-09-28T08:27:58.430Z,100789.30
2018-09-28T08:29:01.032Z,100794.28
2018-09-28T08:30:03.666Z,100797.31
2018-09-28T08:31:06.360Z,100799.98
2018-09-28T08:32:08.922Z,100795.62
2018-09-28T08:33:11.506Z,100795.62
2018-09-28T08:34:14.111Z,100795.27
2018-09-28T08:35:16.700Z,100803.16
2018-09-28T08:36:19.310Z,100805.31
2018-09-28T08:37:21.887Z,100801.31
2018-09-28T08:38:24.490Z,100800.13
2018-09-28T08:39:27.069Z,100803.63
2018-09-28T08:40:29.662Z,100804.84
2018-09-28T08:41:32.230Z,100802.65
2018-09-28T08:42:34.823Z,100802.17
2018-09-28T08:43:37.457Z,100804.33
2018-09-28T08:44:40.064Z,100807.01
2018-09-28T08:45:42.630Z,100806.66
2018-09-28T08:46:45.234Z,100810.19
2018-09-28T08:47:47.854Z,100816.70
2018-09-28T08:48:50.426Z,100814.03
2018-09-28T08:49:52.997Z,100815.02
2018-09-28T08:50:55.564Z,100816.23
2018-09-28T08:51:58.490Z,100818.04
2018-09-28T08:53:01.051Z,100820.59
2018-09-28T08:54:03.634Z,100821.41
2018-09-28T08:55:06.235Z,100820.94
2018-09-28T08:56:08.870Z,100820.08
2018-09-28T08:57:11.429Z,100824.08
2018-09-28T08:58:13.991Z,100830.76
2018-09-28T08:59:16.570Z,100828.95
2018-09-28T09:00:19.190Z,100827.11
2018-09-28T09:01:21.753Z,100832.45
2018-09-28T09:02:24.314Z,100832.80
2018-09-28T09:03:26.890Z,100829.78
2018-09-28T09:04:29.522Z,100838.30
2018-09-28T09:05:32.106Z,100831.11
2018-09-28T09:06:34.703Z,100830.13
2018-09-28T09:07:37.271Z,100837.67
2018-09-28T09:08:39.862Z,100831.47
2018-09-28T09:09:42.474Z,100835.47
2018-09-28T09:10:45.020Z,100848.35
2018-09-28T09:11:47.596Z,100849.69
2018-09-28T09:12:50.174Z,100842.50
2018-09-28T09:13:52.738Z,100850.16
2018-09-28T09:14:55.310Z,100848.83
2018-09-28T09:15:57.904Z,100844.82
2018-09-28T09:17:00.494Z,100852.36
2018-09-28T09:18:03.153Z,100855.03
2018-09-28T09:19:05.750Z,100844.47
2018-09-28T09:20:08.404Z,100847.48
2018-09-28T09:21:10.987Z,100848.47
2018-09-28T09:22:13.578Z,100845.45
2018-09-28T09:23:16.174Z,100846.78
2018-09-28T09:24:18.758Z,100855.15
2018-09-28T09:25:21.325Z,100857.47
2018-09-28T09:26:24.149Z,100859.31
2018-09-28T09:27:26.721Z,100858.45
2018-09-28T09:28:29.484Z,100863.80
2018-09-28T09:29:32.100Z,100864.66
2018-09-28T09:30:34.666Z,100860.65
2018-09-28T09:31:37.223Z,100862.81
2018-09-28T09:32:39.802Z,100865.36
2018-09-28T09:33:42.378Z,100863.04
2018-09-28T09:34:44.942Z,100863.23
2018-09-28T09:35:47.494Z,100864.30
2018-09-28T09:36:50.078Z,100864.88
2018-09-28T09:37:52.682Z,100859.61
2018-09-28T09:38:55.246Z,100872.21
2018-09-28T09:39:57.802Z,100864.90
2018-09-28T09:41:00.410Z,100867.64
2018-09-28T09:42:03.015Z,100872.70
2018-09-28T09:43:05.606Z,100869.75
2018-09-28T09:44:08.250Z,100872.14
2018-09-28T09:45:10.826Z,100872.72
2018-09-28T09:46:13.421Z,100871.58
2018-09-28T09:47:15.974Z,100876.67
2018-09-28T09:48:18.694Z,100874.23
2018-09-28T09:49:21.334Z,100870.06
2018-09-28T09:50:23.918Z,100867.11
2018-09-28T09:51:26.487Z,100874.14
2018-09-28T09:52:29.062Z,100872.20
2018-09-28T09:53:31.665Z,100869.88
2018-09-28T09:54:34.342Z,100879.94
2018-09-28T09:55:36.894Z,100879.94
2018-09-28T09:56:39.450Z,100887.67
2018-09-28T09:57:42.071Z,100883.73
2018-09-28T09:58:44.702Z,100884.50
2018-09-28T09:59:47.310Z,100893.00
2018-09-28T10:00:55.470Z,100888.35
2018-09-28T10:02:03.630Z,100898.59
2018-09-28T10:04:12.924Z,100896.03
2018-09-28T10:05:15.499Z,100904.27
2018-09-28T10:06:18.090Z,100902.74
2018-09-28T10:07:20.689Z,100895.50
2018-09-28T10:08:23.258Z,100909.37
2018-09-28T10:09:25.825Z,100899.09
2018-09-28T10:10:28.422Z,100896.20
2018-09-28T10:11:31.046Z,100908.25
2018-09-28T10:12:33.677Z,100906.77
2018-09-28T10:13:36.214Z,100909.29
2018-09-28T10:14:38.777Z,100908.54
2018-09-28T10:15:41.362Z,100906.34
2018-09-28T10:16:43.942Z,100907.44
2018-09-28T10:17:46.510Z,100912.72
2018-09-28T10:18:49.069Z,100905.87
2018-09-28T10:19:51.691Z,100910.78
2018-09-28T10:20:54.270Z,100908.27
2018-09-28T10:21:57.102Z,100909.47
2018-09-28T10:22:59.736Z,100907.64
2018-09-28T10:24:02.324Z,100911.30
2018-09-28T10:25:04.898Z,100913.29
2018-09-28T10:26:07.504Z,100922.00
2018-09-28T10:27:10.078Z,100922.83
2018-09-28T10:28:12.742Z,100925.83
2018-09-28T10:29:15.259Z,100935.19
2018-09-28T10:30:17.846Z,100935.64
2018-09-28T10:31:20.390Z,100928.37
2018-09-28T10:32:22.970Z,100933.88
2018-09-28T10:33:25.578Z,100934.84
2018-09-28T10:34:28.189Z,100932.47
2018-09-28T10:35:30.746Z,100937.46
2018-09-28T10:36:33.371Z,100939.59
2018-09-28T10:37:35.942Z,100939.55
2018-09-28T10:38:38.511Z,100948.56
2018-09-28T10:39:41.099Z,100941.30
2018-09-28T10:40:43.815Z,100942.59
2018-09-28T10:41:46.395Z,100947.58
2018-09-28T10:42:48.962Z,100953.24
2018-09-28T10:43:51.746Z,100948.48
2018-09-28T10:44:54.331Z,100949.27
2018-09-28T10:45:56.907Z,100949.74
2018-09-28T10:46:59.463Z,100954.52
2018-09-28T10:48:02.043Z,100963.68
2018-09-28T10:49:04.666Z,100953.42
2018-09-28T10:50:07.263Z,100954.20
2018-09-28T10:51:09.849Z,100960.38
2018-09-28T10:52:12.486Z,100965.18
2018-09-28T10:53:15.227Z,100967.30
2018-09-28T10:54:17.793Z,100957.05
2018-09-28T10:55:20.370Z,100957.34
2018-09-28T10:56:22.942Z,100963.82
2018-09-28T10:57:25.647Z,100954.91
2018-09-28T10:58:28.233Z,100954.00
2018-09-28T10:59:30.791Z,100956.46
2018-09-28T11:00:33.448Z,100939.86
2018-09-28T11:01:35.966Z,100958.39
2018-09-28T11:02:38.544Z,100963.21
2018-09-28T11:03:41.144Z,100963.51
2018-09-28T11:04:43.730Z,100964.98
2018-09-28T11:05:46.310Z,100966.61
2018-09-28T11:06:48.890Z,100968.23
2018-09-28T11:07:51.455Z,100968.02
2018-09-28T11:08:54.075Z,100966.97
2018-09-28T11:09:56.698Z,100970.30
2018-09-28T11:10:59.260Z,100973.48
2018-09-28T11:12:01.854Z,100970.75
2018-09-28T11:13:04.454Z,100969.54
2018-09-28T11:14:07.270Z,100970.52
2018-09-28T11:15:09.899Z,100974.20
2018-09-28T11:16:12.421Z,100980.06
2018-09-28T11:17:15.042Z,100980.19
2018-09-28T11:18:17.578Z,100979.36
2018-09-28T11:19:20.146Z,100975.82
2018-09-28T11:20:22.708Z,100974.64
2018-09-28T11:21:25.378Z,100978.15
2018-09-28T11:22:27.894Z,100980.47
2018-09-28T11:23:30.466Z,100985.00
2018-09-28T11:24:33.261Z,100985.95
2018-09-28T11:25:35.834Z,100990.96
2018-09-28T11:26:38.412Z,100991.47
2018-09-28T11:27:41.008Z,100982.58
2018-09-28T11:28:43.581Z,100995.74
2018-09-28T11:29:46.130Z,100998.42
2018-09-28T11:30:48.858Z,100996.57
2018-09-28T11:31:51.406Z,100994.75
2018-09-28T11:32:53.972Z,101004.47
2018-09-28T11:33:56.523Z,101003.99
2018-09-28T11:34:59.108Z,101004.34
2018-09-28T11:36:01.695Z,101000.84
2018-09-28T11:37:04.254Z,101006.03
2018-09-28T11:38:06.851Z,101006.03
2018-09-28T11:39:09.458Z,101004.22
2018-09-28T11:40:12.254Z,101005.91
2018-09-28T11:41:14.810Z,101004.56
2018-09-28T11:42:17.370Z,101006.42
2018-09-28T11:43:20.118Z,101002.41
2018-09-28T11:44:22.683Z,101006.42
2018-09-28T11:45:25.348Z,100997.05
2018-09-28T11:46:27.929Z,101004.22
2018-09-28T11:47:30.494Z,101007.75
2018-09-28T11:48:33.078Z,101011.39
2018-09-28T11:49:35.659Z,101011.26
2018-09-28T11:50:38.214Z,101014.92
2018-09-28T11:51:40.954Z,101016.74
2018-09-28T11:52:43.533Z,101013.23
2018-09-28T11:53:46.086Z,101019.93
2018-09-28T11:54:48.666Z,101010.56
2018-09-28T11:55:51.266Z,101018.59
2018-09-28T11:56:53.900Z,101021.74